Rechercher aéroport 
image banner adimage banner adimage banner ad
image banner ad

59L - Van Nuys

Situé à Los Angeles, United States

ICAO - 59L, IATA -

Données fournies par Airmate  

Information générale

Coordonnées: N34°3'11" W118°14'30"
Élévation : 360 feet MSL.
Variation magnétique : 14° East
Voir autres Aéroports à California

Données opérationnelles

Special qualification required
Heure actuelle UTC:
Heure actuelle locale:
METAR: KHHR 020553Z AUTO 22004KT 10SM CLR 19/14 A3003 RMK AO2 SLP167 T01890144 10244 20189 51013
Voir NOTAMs / SUP AIP / TFR affectant cet aéroport [VIEW]
Fréquences de communication: [VIEW]

Pistes:

Coordonnées de l'aéroport

Adresse: Los Angeles United States

Vue satellite de 59L